Fort Laramie, WY (82212)

7:54 PM MDT on August 29, 2014 (GMT -0600)
Cherry Creek | Change Station
CLOSE
Current Station
Personal Weather Station
Location: Veteran, WY
Elevation: 4249 ft
Nearby Weather Stations

Elev 4249 ft 41.99 °N, 104.40 °W | Updated 4 minutes ago

Partly Cloudy
Partly Cloudy
68.4 °F
Feels Like 68.4 °F
N
2.0
Wind Variable Wind from ENE
Gusts 2.0 mph

Today
High -- | Low -- °F
--% Chance of Precip.
Yesterday
High -- | Low -- °F
Precip. -- in
6:20 AM 7:36 PM
Waxing Crescent, 18% visible
Pressure 29.91 in
Visibility 10.0 miles
Clouds Clear
Dew Point 53 °F
Humidity 58%
Rainfall 0.00 in
Snow Depth Not available.
UV 0 out of 12
Pollen 9.10 out of 12
Air Quality Not available.
Flu Activity Not available.
METAR KTOR 300053Z AUTO 03008KT 10SM CLR 23/09 A3001 RMK AO2 SLP128 T02330089 $

More Conditions Fewer Conditions

Pressure 29.91 in
Visibility 10.0 miles
Clouds Clear
Dew Point 53 °F
Humidity 58%
Rainfall 0.00 in
Snow Depth Not available.
UV 0 out of 12
Pollen 9.10 out of 12
Air Quality Not available.
Flu Activity Not available.
METAR KTOR 300053Z AUTO 03008KT 10SM CLR 23/09 A3001 RMK AO2 SLP128 T02330089 $

More Conditions Fewer Conditions

10-Day Weather Forecast

Almanac

Astronomy

Aug. 29, 2014 Rise Set
Actual Time 6:20 AM MDT 7:36 PM MDT
Civil Twilight 5:51 AM MDT 8:05 PM MDT
Nautical Twilight 5:16 AM MDT 8:40 PM MDT
Astronomical Twilight 4:39 AM MDT 9:17 PM MDT
Moon 10:17 AM MDT (8/29) 9:30 PM MDT (8/29)
Length of Visible Light 14h 14m
Length of Day
13h 16m
Tomorrow will be 2m 43s shorter.
Waxing Crescent, 18% of the Moon is Illuminated
Today
Waxing Crescent
Sep 2
First Quarter
Sep 8
Full
Sep 15
Last Quarter
Sep 24
New

Today's Extremes

State Highs State Lows

Community

WunderPhotos

Upload Photos

1,748,403 photos uploaded!

Nearby

Snow Depth

Station Depth Elevation
Crow Creek 5 in 8330 ft
Casper Mountain 0 in 7850 ft
Cinnabar Park 0 in 9690 ft
South Brush Creek 0 in 8440 ft
Webber Springs 0 in 9250 ft

Earthquake Activity

City Distance Mag. Time & Date
No recent earthquake activity has been reported nearby.
Minimum magnitude displayed is 2.5.

Coastal Water Temperatures

Place Temperature
No Stations Reporting

Nearby Weather Stations